sensor_id;sensor_type;location;lat;lon;timestamp;pressure;altitude;pressure_sealevel;temperature;humidity
48563;BME280;34981;49.104;11.396;2023-07-29T00:01:40;103425.34;;;16.92;100.00
48563;BME280;34981;49.104;11.396;2023-07-29T00:04:08;103440.19;;;16.88;100.00
48563;BME280;34981;49.104;11.396;2023-07-29T00:06:38;103451.06;;;16.88;100.00
48563;BME280;34981;49.104;11.396;2023-07-29T00:09:05;103460.47;;;16.84;100.00
48563;BME280;34981;49.104;11.396;2023-07-29T00:11:32;103469.63;;;16.83;100.00
48563;BME280;34981;49.104;11.396;2023-07-29T00:14:01;103473.34;;;16.82;100.00
48563;BME280;34981;49.104;11.396;2023-07-29T00:16:28;103485.72;;;16.86;100.00
48563;BME280;34981;49.104;11.396;2023-07-29T00:18:55;103506.59;;;16.86;100.00
48563;BME280;34981;49.104;11.396;2023-07-29T00:21:22;103486.06;;;16.82;100.00
48563;BME280;34981;49.104;11.396;2023-07-29T00:23:50;103499.94;;;16.79;100.00
48563;BME280;34981;49.104;11.396;2023-07-29T00:26:17;103513.28;;;16.82;100.00
48563;BME280;34981;49.104;11.396;2023-07-29T00:28:44;103505.63;;;16.76;100.00
48563;BME280;34981;49.104;11.396;2023-07-29T00:31:11;103512.03;;;16.74;100.00
48563;BME280;34981;49.104;11.396;2023-07-29T00:33:40;103507.00;;;16.70;100.00
48563;BME280;34981;49.104;11.396;2023-07-29T00:36:07;103520.31;;;16.73;100.00
48563;BME280;34981;49.104;11.396;2023-07-29T00:38:34;103500.34;;;16.63;100.00
48563;BME280;34981;49.104;11.396;2023-07-29T00:41:04;103525.56;;;16.65;100.00
48563;BME280;34981;49.104;11.396;2023-07-29T00:43:31;103531.00;;;16.65;100.00
48563;BME280;34981;49.104;11.396;2023-07-29T00:46:01;103538.66;;;16.71;100.00
48563;BME280;34981;49.104;11.396;2023-07-29T00:48:29;103522.09;;;16.63;100.00
48563;BME280;34981;49.104;11.396;2023-07-29T00:50:56;103523.78;;;16.53;100.00
48563;BME280;34981;49.104;11.396;2023-07-29T00:53:23;103547.00;;;16.46;100.00
48563;BME280;34981;49.104;11.396;2023-07-29T00:55:51;103569.72;;;16.45;100.00
48563;BME280;34981;49.104;11.396;2023-07-29T00:58:18;103584.09;;;16.35;100.00
48563;BME280;34981;49.104;11.396;2023-07-29T01:00:46;103610.72;;;16.30;100.00
48563;BME280;34981;49.104;11.396;2023-07-29T01:03:14;103654.97;;;16.32;100.00
48563;BME280;34981;49.104;11.396;2023-07-29T01:05:50;103656.06;;;16.30;100.00
48563;BME280;34981;49.104;11.396;2023-07-29T01:08:37;103658.06;;;16.28;100.00
48563;BME280;34981;49.104;11.396;2023-07-29T01:11:22;103684.38;;;16.27;100.00
48563;BME280;34981;49.104;11.396;2023-07-29T01:13:58;103704.38;;;16.26;100.00
48563;BME280;34981;49.104;11.396;2023-07-29T01:16:31;103740.91;;;16.22;100.00
48563;BME280;34981;49.104;11.396;2023-07-29T01:19:00;103783.31;;;16.25;100.00
48563;BME280;34981;49.104;11.396;2023-07-29T01:21:31;103822.00;;;16.28;100.00
48563;BME280;34981;49.104;11.396;2023-07-29T01:24:00;103848.06;;;16.31;100.00
48563;BME280;34981;49.104;11.396;2023-07-29T01:26:27;103875.91;;;16.34;100.00
48563;BME280;34981;49.104;11.396;2023-07-29T01:28:56;103885.25;;;16.30;100.00
48563;BME280;34981;49.104;11.396;2023-07-29T01:31:30;103906.13;;;16.30;100.00
48563;BME280;34981;49.104;11.396;2023-07-29T01:34:00;103905.50;;;16.26;100.00
48563;BME280;34981;49.104;11.396;2023-07-29T01:36:29;103952.34;;;16.30;100.00
48563;BME280;34981;49.104;11.396;2023-07-29T01:38:57;103965.06;;;16.29;100.00
48563;BME280;34981;49.104;11.396;2023-07-29T01:41:24;103999.41;;;16.30;100.00
48563;BME280;34981;49.104;11.396;2023-07-29T01:43:52;104006.59;;;16.31;100.00
48563;BME280;34981;49.104;11.396;2023-07-29T01:46:19;104010.53;;;16.27;100.00
48563;BME280;34981;49.104;11.396;2023-07-29T01:48:47;104020.63;;;16.25;100.00
48563;BME280;34981;49.104;11.396;2023-07-29T01:51:14;104039.19;;;16.31;100.00
48563;BME280;34981;49.104;11.396;2023-07-29T01:53:42;104021.59;;;16.24;100.00
48563;BME280;34981;49.104;11.396;2023-07-29T01:56:09;104027.03;;;16.24;100.00
48563;BME280;34981;49.104;11.396;2023-07-29T01:58:40;103991.63;;;16.13;100.00
48563;BME280;34981;49.104;11.396;2023-07-29T02:01:07;104027.69;;;16.15;100.00
48563;BME280;34981;49.104;11.396;2023-07-29T02:03:34;104019.00;;;16.10;100.00
48563;BME280;34981;49.104;11.396;2023-07-29T02:06:01;104043.13;;;16.15;100.00
48563;BME280;34981;49.104;11.396;2023-07-29T02:08:28;104038.78;;;16.12;100.00
48563;BME280;34981;49.104;11.396;2023-07-29T02:10:56;104026.53;;;16.07;100.00
48563;BME280;34981;49.104;11.396;2023-07-29T02:13:23;104035.66;;;16.06;100.00
48563;BME280;34981;49.104;11.396;2023-07-29T02:15:50;104039.09;;;16.08;100.00
48563;BME280;34981;49.104;11.396;2023-07-29T02:18:17;104049.66;;;16.12;100.00
48563;BME280;34981;49.104;11.396;2023-07-29T02:20:44;104029.88;;;16.10;100.00
48563;BME280;34981;49.104;11.396;2023-07-29T02:23:16;103962.28;;;15.93;100.00
48563;BME280;34981;49.104;11.396;2023-07-29T02:25:46;103957.28;;;15.87;100.00
48563;BME280;34981;49.104;11.396;2023-07-29T02:28:13;103959.66;;;15.79;100.00
48563;BME280;34981;49.104;11.396;2023-07-29T02:30:41;103974.47;;;15.75;100.00
48563;BME280;34981;49.104;11.396;2023-07-29T02:33:11;103977.38;;;15.72;100.00
48563;BME280;34981;49.104;11.396;2023-07-29T02:35:38;104000.31;;;15.68;100.00
48563;BME280;34981;49.104;11.396;2023-07-29T02:38:06;104005.28;;;15.61;100.00
48563;BME280;34981;49.104;11.396;2023-07-29T02:40:33;104020.47;;;15.64;100.00
48563;BME280;34981;49.104;11.396;2023-07-29T02:43:00;104026.59;;;15.67;100.00
48563;BME280;34981;49.104;11.396;2023-07-29T02:45:28;104029.41;;;15.66;100.00
48563;BME280;34981;49.104;11.396;2023-07-29T02:47:55;104037.34;;;15.69;100.00
48563;BME280;34981;49.104;11.396;2023-07-29T02:50:22;104050.06;;;15.81;100.00
48563;BME280;34981;49.104;11.396;2023-07-29T02:52:50;104050.41;;;15.89;100.00
48563;BME280;34981;49.104;11.396;2023-07-29T02:58:10;103909.94;;;15.91;100.00
48563;BME280;34981;49.104;11.396;2023-07-29T03:00:37;103928.28;;;15.87;100.00
48563;BME280;34981;49.104;11.396;2023-07-29T03:03:05;103880.91;;;15.79;100.00
48563;BME280;34981;49.104;11.396;2023-07-29T03:05:33;103849.88;;;15.70;100.00
48563;BME280;34981;49.104;11.396;2023-07-29T03:08:00;103849.53;;;15.75;100.00
48563;BME280;34981;49.104;11.396;2023-07-29T03:10:27;103836.72;;;15.77;100.00
48563;BME280;34981;49.104;11.396;2023-07-29T03:12:54;103820.94;;;15.82;100.00
48563;BME280;34981;49.104;11.396;2023-07-29T03:15:25;103773.72;;;15.72;100.00
48563;BME280;34981;49.104;11.396;2023-07-29T03:17:52;103714.13;;;15.57;100.00
48563;BME280;34981;49.104;11.396;2023-07-29T03:20:20;103729.44;;;15.58;100.00
48563;BME280;34981;49.104;11.396;2023-07-29T03:22:47;103704.25;;;15.56;100.00
48563;BME280;34981;49.104;11.396;2023-07-29T03:25:14;103652.06;;;15.40;100.00
48563;BME280;34981;49.104;11.396;2023-07-29T03:27:41;103634.59;;;15.32;100.00
48563;BME280;34981;49.104;11.396;2023-07-29T03:30:09;103654.22;;;15.35;100.00
48563;BME280;34981;49.104;11.396;2023-07-29T03:32:39;103659.13;;;15.30;100.00
48563;BME280;34981;49.104;11.396;2023-07-29T03:35:06;103665.44;;;15.31;100.00
48563;BME280;34981;49.104;11.396;2023-07-29T03:37:33;103688.47;;;15.25;100.00
48563;BME280;34981;49.104;11.396;2023-07-29T03:40:00;103718.22;;;15.27;100.00
48563;BME280;34981;49.104;11.396;2023-07-29T03:42:31;103745.09;;;15.30;100.00
48563;BME280;34981;49.104;11.396;2023-07-29T03:44:58;103782.00;;;15.32;100.00
48563;BME280;34981;49.104;11.396;2023-07-29T03:47:25;103808.28;;;15.32;100.00
48563;BME280;34981;49.104;11.396;2023-07-29T03:49:53;103830.09;;;15.30;100.00
48563;BME280;34981;49.104;11.396;2023-07-29T03:52:22;103858.88;;;15.33;100.00
48563;BME280;34981;49.104;11.396;2023-07-29T03:54:49;103864.31;;;15.33;100.00
48563;BME280;34981;49.104;11.396;2023-07-29T03:57:16;103879.03;;;15.29;100.00
48563;BME280;34981;49.104;11.396;2023-07-29T03:59:43;103910.72;;;15.28;100.00
48563;BME280;34981;49.104;11.396;2023-07-29T04:02:10;103952.75;;;15.35;100.00
48563;BME280;34981;49.104;11.396;2023-07-29T04:04:38;103960.91;;;15.35;100.00
48563;BME280;34981;49.104;11.396;2023-07-29T04:07:05;103983.28;;;15.39;100.00
48563;BME280;34981;49.104;11.396;2023-07-29T04:09:32;103999.47;;;15.40;100.00
48563;BME280;34981;49.104;11.396;2023-07-29T04:11:59;104038.00;;;15.45;100.00
48563;BME280;34981;49.104;11.396;2023-07-29T04:14:27;104068.25;;;15.53;100.00
48563;BME280;34981;49.104;11.396;2023-07-29T04:16:54;104072.63;;;15.56;100.00
48563;BME280;34981;49.104;11.396;2023-07-29T04:19:21;104086.84;;;15.60;100.00
48563;BME280;34981;49.104;11.396;2023-07-29T04:21:48;104097.38;;;15.64;100.00
48563;BME280;34981;49.104;11.396;2023-07-29T04:24:17;104106.09;;;15.69;100.00
48563;BME280;34981;49.104;11.396;2023-07-29T04:26:47;104108.50;;;15.74;100.00
48563;BME280;34981;49.104;11.396;2023-07-29T04:29:14;104129.91;;;15.78;100.00
48563;BME280;34981;49.104;11.396;2023-07-29T04:31:41;104161.31;;;15.82;100.00
48563;BME280;34981;49.104;11.396;2023-07-29T04:34:09;104187.97;;;15.90;100.00
48563;BME280;34981;49.104;11.396;2023-07-29T04:36:38;104172.22;;;15.95;100.00
48563;BME280;34981;49.104;11.396;2023-07-29T04:39:06;104188.31;;;15.98;100.00
48563;BME280;34981;49.104;11.396;2023-07-29T04:41:33;104226.59;;;16.08;100.00
48563;BME280;34981;49.104;11.396;2023-07-29T04:44:00;104232.69;;;16.11;100.00
48563;BME280;34981;49.104;11.396;2023-07-29T04:46:27;104254.38;;;16.25;100.00
48563;BME280;34981;49.104;11.396;2023-07-29T04:48:54;104236.66;;;16.32;100.00
48563;BME280;34981;49.104;11.396;2023-07-29T04:51:22;104215.44;;;16.25;100.00
48563;BME280;34981;49.104;11.396;2023-07-29T04:53:49;104235.78;;;16.32;100.00
48563;BME280;34981;49.104;11.396;2023-07-29T04:56:16;104317.47;;;16.70;100.00
48563;BME280;34981;49.104;11.396;2023-07-29T04:58:45;104221.94;;;16.62;100.00
48563;BME280;34981;49.104;11.396;2023-07-29T05:01:12;104437.66;;;17.41;100.00
48563;BME280;34981;49.104;11.396;2023-07-29T05:03:39;104205.59;;;17.12;100.00
48563;BME280;34981;49.104;11.396;2023-07-29T05:06:07;104170.88;;;17.03;100.00
48563;BME280;34981;49.104;11.396;2023-07-29T05:08:35;104705.50;;;19.10;100.00
48563;BME280;34981;49.104;11.396;2023-07-29T05:11:02;104094.44;;;18.13;100.00
48563;BME280;34981;49.104;11.396;2023-07-29T05:13:29;103923.56;;;17.23;100.00
48563;BME280;34981;49.104;11.396;2023-07-29T05:15:57;103923.03;;;17.06;100.00
48563;BME280;34981;49.104;11.396;2023-07-29T05:18:24;103925.69;;;16.95;100.00
48563;BME280;34981;49.104;11.396;2023-07-29T05:20:51;103901.66;;;16.89;100.00
48563;BME280;34981;49.104;11.396;2023-07-29T05:23:19;103926.31;;;16.99;100.00
48563;BME280;34981;49.104;11.396;2023-07-29T05:25:46;103925.09;;;17.03;100.00
48563;BME280;34981;49.104;11.396;2023-07-29T05:28:13;103887.84;;;16.92;100.00
48563;BME280;34981;49.104;11.396;2023-07-29T05:30:40;103905.44;;;16.99;100.00
48563;BME280;34981;49.104;11.396;2023-07-29T05:33:07;103883.00;;;16.96;100.00
48563;BME280;34981;49.104;11.396;2023-07-29T05:35:35;103880.06;;;16.99;100.00
48563;BME280;34981;49.104;11.396;2023-07-29T05:38:02;103880.56;;;17.04;100.00
48563;BME280;34981;49.104;11.396;2023-07-29T05:40:32;103824.03;;;16.96;100.00
48563;BME280;34981;49.104;11.396;2023-07-29T05:42:59;103812.41;;;16.94;100.00
48563;BME280;34981;49.104;11.396;2023-07-29T05:45:26;103800.88;;;16.91;100.00
48563;BME280;34981;49.104;11.396;2023-07-29T05:47:53;103819.44;;;16.97;100.00
48563;BME280;34981;49.104;11.396;2023-07-29T05:50:21;103779.25;;;16.89;100.00
48563;BME280;34981;49.104;11.396;2023-07-29T05:52:48;103765.38;;;16.81;100.00
48563;BME280;34981;49.104;11.396;2023-07-29T05:55:16;103773.53;;;16.81;100.00
48563;BME280;34981;49.104;11.396;2023-07-29T05:57:43;103775.16;;;16.84;100.00
48563;BME280;34981;49.104;11.396;2023-07-29T06:00:10;103785.91;;;16.85;100.00
48563;BME280;34981;49.104;11.396;2023-07-29T06:02:40;103790.75;;;16.93;100.00
48563;BME280;34981;49.104;11.396;2023-07-29T06:05:11;103798.56;;;16.97;100.00
48563;BME280;34981;49.104;11.396;2023-07-29T06:07:38;103817.25;;;17.02;100.00
48563;BME280;34981;49.104;11.396;2023-07-29T06:10:14;103808.94;;;17.03;100.00
48563;BME280;34981;49.104;11.396;2023-07-29T06:12:45;103803.50;;;17.03;100.00
48563;BME280;34981;49.104;11.396;2023-07-29T06:15:12;103825.28;;;17.03;100.00
48563;BME280;34981;49.104;11.396;2023-07-29T06:17:41;103840.03;;;17.12;100.00
48563;BME280;34981;49.104;11.396;2023-07-29T06:20:08;103847.84;;;17.17;100.00
48563;BME280;34981;49.104;11.396;2023-07-29T06:22:36;103843.38;;;17.16;100.00
48563;BME280;34981;49.104;11.396;2023-07-29T06:25:04;103837.06;;;17.15;100.00
48563;BME280;34981;49.104;11.396;2023-07-29T06:27:31;103852.66;;;17.13;100.00
48563;BME280;34981;49.104;11.396;2023-07-29T06:29:58;103850.31;;;17.08;100.00
48563;BME280;34981;49.104;11.396;2023-07-29T06:32:25;103866.38;;;17.11;100.00
48563;BME280;34981;49.104;11.396;2023-07-29T06:34:53;103825.88;;;16.96;100.00
48563;BME280;34981;49.104;11.396;2023-07-29T06:37:21;103838.38;;;16.98;100.00
48563;BME280;34981;49.104;11.396;2023-07-29T06:39:49;103828.16;;;17.02;100.00
48563;BME280;34981;49.104;11.396;2023-07-29T06:42:16;103826.63;;;16.98;100.00
48563;BME280;34981;49.104;11.396;2023-07-29T06:44:43;103800.88;;;16.91;100.00
48563;BME280;34981;49.104;11.396;2023-07-29T06:47:12;103797.06;;;16.93;100.00
48563;BME280;34981;49.104;11.396;2023-07-29T06:49:40;103811.41;;;16.95;100.00
48563;BME280;34981;49.104;11.396;2023-07-29T06:52:07;103813.13;;;16.96;100.00
48563;BME280;34981;49.104;11.396;2023-07-29T06:54:34;103818.59;;;16.96;100.00
48563;BME280;34981;49.104;11.396;2023-07-29T06:57:01;103831.97;;;16.99;100.00
48563;BME280;34981;49.104;11.396;2023-07-29T06:59:28;103826.88;;;16.95;100.00
48563;BME280;34981;49.104;11.396;2023-07-29T07:01:55;103849.91;;;17.02;100.00
48563;BME280;34981;49.104;11.396;2023-07-29T07:04:22;103880.22;;;17.08;100.00
48563;BME280;34981;49.104;11.396;2023-07-29T07:06:50;103875.78;;;17.07;100.00
48563;BME280;34981;49.104;11.396;2023-07-29T07:09:17;103860.16;;;16.98;100.00
48563;BME280;34981;49.104;11.396;2023-07-29T07:11:44;103861.91;;;16.99;100.00
48563;BME280;34981;49.104;11.396;2023-07-29T07:14:12;103870.81;;;17.01;100.00
48563;BME280;34981;49.104;11.396;2023-07-29T07:16:39;103866.34;;;17.00;100.00
48563;BME280;34981;49.104;11.396;2023-07-29T07:19:07;103908.44;;;17.07;100.00
48563;BME280;34981;49.104;11.396;2023-07-29T07:21:34;103915.63;;;17.08;100.00
48563;BME280;34981;49.104;11.396;2023-07-29T07:24:01;103857.81;;;17.05;100.00
48563;BME280;34981;49.104;11.396;2023-07-29T07:26:29;103853.72;;;16.99;100.00
48563;BME280;34981;49.104;11.396;2023-07-29T07:28:56;103871.25;;;16.95;100.00
48563;BME280;34981;49.104;11.396;2023-07-29T07:31:23;103858.53;;;16.96;100.00
48563;BME280;34981;49.104;11.396;2023-07-29T07:33:50;103836.03;;;16.94;100.00
48563;BME280;34981;49.104;11.396;2023-07-29T07:36:17;103790.88;;;16.80;100.00
48563;BME280;34981;49.104;11.396;2023-07-29T07:38:44;103773.25;;;16.73;100.00
48563;BME280;34981;49.104;11.396;2023-07-29T07:41:12;103757.19;;;16.70;100.00
48563;BME280;34981;49.104;11.396;2023-07-29T07:43:39;103751.97;;;16.67;100.00
48563;BME280;34981;49.104;11.396;2023-07-29T07:46:06;103736.16;;;16.61;100.00
48563;BME280;34981;49.104;11.396;2023-07-29T07:48:33;103727.88;;;16.62;100.00
48563;BME280;34981;49.104;11.396;2023-07-29T07:51:09;103727.19;;;16.59;100.00
48563;BME280;34981;49.104;11.396;2023-07-29T07:53:36;103713.41;;;16.62;100.00
48563;BME280;34981;49.104;11.396;2023-07-29T07:56:03;103732.03;;;16.55;100.00
48563;BME280;34981;49.104;11.396;2023-07-29T07:58:30;103729.41;;;16.54;100.00
48563;BME280;34981;49.104;11.396;2023-07-29T08:01:01;103740.28;;;16.54;100.00
48563;BME280;34981;49.104;11.396;2023-07-29T08:03:28;103733.38;;;16.50;100.00
48563;BME280;34981;49.104;11.396;2023-07-29T08:05:55;103741.53;;;16.50;100.00
48563;BME280;34981;49.104;11.396;2023-07-29T08:08:22;103749.81;;;16.48;100.00
48563;BME280;34981;49.104;11.396;2023-07-29T08:10:49;103752.53;;;16.48;100.00
48563;BME280;34981;49.104;11.396;2023-07-29T08:13:16;103759.44;;;16.52;100.00
48563;BME280;34981;49.104;11.396;2023-07-29T08:15:45;103780.88;;;16.57;100.00
48563;BME280;34981;49.104;11.396;2023-07-29T08:18:12;103784.22;;;16.60;100.00
48563;BME280;34981;49.104;11.396;2023-07-29T08:20:40;103795.75;;;16.64;100.00
48563;BME280;34981;49.104;11.396;2023-07-29T08:23:07;103808.97;;;16.68;100.00
48563;BME280;34981;49.104;11.396;2023-07-29T08:25:34;103850.94;;;16.77;100.00
48563;BME280;34981;49.104;11.396;2023-07-29T08:28:02;103858.00;;;16.80;100.00
48563;BME280;34981;49.104;11.396;2023-07-29T08:30:29;103874.94;;;16.83;100.00
48563;BME280;34981;49.104;11.396;2023-07-29T08:32:56;103856.16;;;16.80;100.00
48563;BME280;34981;49.104;11.396;2023-07-29T08:35:23;103878.03;;;16.90;100.00
48563;BME280;34981;49.104;11.396;2023-07-29T08:37:50;103953.47;;;17.11;100.00
48563;BME280;34981;49.104;11.396;2023-07-29T08:40:18;103964.88;;;17.17;100.00
48563;BME280;34981;49.104;11.396;2023-07-29T08:42:46;103933.66;;;17.09;100.00
48563;BME280;34981;49.104;11.396;2023-07-29T08:45:14;103932.06;;;17.07;100.00
48563;BME280;34981;49.104;11.396;2023-07-29T08:47:41;103960.28;;;17.17;100.00
48563;BME280;34981;49.104;11.396;2023-07-29T08:50:08;103992.91;;;17.30;100.00
48563;BME280;34981;49.104;11.396;2023-07-29T08:52:39;103940.13;;;17.20;100.00
48563;BME280;34981;49.104;11.396;2023-07-29T08:55:08;103962.41;;;17.25;100.00
48563;BME280;34981;49.104;11.396;2023-07-29T08:57:35;103963.16;;;17.27;100.00
48563;BME280;34981;49.104;11.396;2023-07-29T09:00:02;103980.00;;;17.32;100.00
48563;BME280;34981;49.104;11.396;2023-07-29T09:02:31;103968.03;;;17.34;100.00
48563;BME280;34981;49.104;11.396;2023-07-29T09:04:58;103967.16;;;17.34;100.00
48563;BME280;34981;49.104;11.396;2023-07-29T09:07:26;103956.38;;;17.32;100.00
48563;BME280;34981;49.104;11.396;2023-07-29T09:09:53;103980.28;;;17.40;100.00
48563;BME280;34981;49.104;11.396;2023-07-29T09:12:20;103965.81;;;17.39;100.00
48563;BME280;34981;49.104;11.396;2023-07-29T09:14:51;103959.50;;;17.39;100.00
48563;BME280;34981;49.104;11.396;2023-07-29T09:17:18;103936.13;;;17.36;100.00
48563;BME280;34981;49.104;11.396;2023-07-29T09:19:50;103983.28;;;17.48;100.00
48563;BME280;34981;49.104;11.396;2023-07-29T09:22:18;103968.47;;;17.52;100.00
48563;BME280;34981;49.104;11.396;2023-07-29T09:24:48;103950.88;;;17.45;100.00
48563;BME280;34981;49.104;11.396;2023-07-29T09:27:25;103954.47;;;17.45;100.00
48563;BME280;34981;49.104;11.396;2023-07-29T09:29:54;103941.34;;;17.50;100.00
48563;BME280;34981;49.104;11.396;2023-07-29T09:32:22;103944.28;;;17.47;100.00
48563;BME280;34981;49.104;11.396;2023-07-29T09:34:50;103940.19;;;17.42;100.00
48563;BME280;34981;49.104;11.396;2023-07-29T09:37:23;103924.34;;;17.36;100.00
48563;BME280;34981;49.104;11.396;2023-07-29T09:39:50;103907.25;;;17.34;100.00
48563;BME280;34981;49.104;11.396;2023-07-29T09:42:18;103915.44;;;17.34;100.00
48563;BME280;34981;49.104;11.396;2023-07-29T09:44:47;103916.41;;;17.33;100.00
48563;BME280;34981;49.104;11.396;2023-07-29T09:47:24;103920.75;;;17.35;100.00
48563;BME280;34981;49.104;11.396;2023-07-29T09:49:52;103888.97;;;17.36;100.00
48563;BME280;34981;49.104;11.396;2023-07-29T09:52:20;103920.38;;;17.40;100.00
48563;BME280;34981;49.104;11.396;2023-07-29T09:54:48;103944.94;;;17.51;100.00
48563;BME280;34981;49.104;11.396;2023-07-29T09:57:16;103944.44;;;17.57;100.00
48563;BME280;34981;49.104;11.396;2023-07-29T09:59:53;103954.88;;;17.63;100.00
48563;BME280;34981;49.104;11.396;2023-07-29T10:02:20;103908.06;;;17.58;100.00
48563;BME280;34981;49.104;11.396;2023-07-29T10:04:48;103948.34;;;17.66;100.00
48563;BME280;34981;49.104;11.396;2023-07-29T10:07:16;103996.16;;;17.81;100.00
48563;BME280;34981;49.104;11.396;2023-07-29T10:09:45;104041.13;;;17.98;100.00
48563;BME280;34981;49.104;11.396;2023-07-29T10:12:12;104073.50;;;18.13;100.00
48563;BME280;34981;49.104;11.396;2023-07-29T10:14:41;104081.34;;;18.18;100.00
48563;BME280;34981;49.104;11.396;2023-07-29T10:17:08;104103.16;;;18.29;100.00
48563;BME280;34981;49.104;11.396;2023-07-29T10:19:35;104133.31;;;18.39;100.00
48563;BME280;34981;49.104;11.396;2023-07-29T10:22:03;104161.34;;;18.52;100.00
48563;BME280;34981;49.104;11.396;2023-07-29T10:24:32;104202.56;;;18.71;100.00
48563;BME280;34981;49.104;11.396;2023-07-29T10:27:00;104240.06;;;18.91;100.00
48563;BME280;34981;49.104;11.396;2023-07-29T10:29:31;104226.91;;;18.96;100.00
48563;BME280;34981;49.104;11.396;2023-07-29T10:32:01;104223.94;;;19.11;100.00
48563;BME280;34981;49.104;11.396;2023-07-29T10:34:28;104247.66;;;19.21;100.00
48563;BME280;34981;49.104;11.396;2023-07-29T10:36:56;104294.72;;;19.47;100.00
48563;BME280;34981;49.104;11.396;2023-07-29T10:39:24;104290.09;;;19.59;100.00
48563;BME280;34981;49.104;11.396;2023-07-29T10:41:54;104279.28;;;19.68;100.00
48563;BME280;34981;49.104;11.396;2023-07-29T10:47:19;104183.88;;;19.97;100.00
48563;BME280;34981;49.104;11.396;2023-07-29T10:49:48;104233.56;;;20.02;100.00
48563;BME280;34981;49.104;11.396;2023-07-29T10:52:16;104283.00;;;20.21;100.00
48563;BME280;34981;49.104;11.396;2023-07-29T10:54:44;104340.59;;;20.52;100.00
48563;BME280;34981;49.104;11.396;2023-07-29T10:57:13;104275.06;;;20.50;100.00
48563;BME280;34981;49.104;11.396;2023-07-29T10:59:41;104316.88;;;20.73;100.00
48563;BME280;34981;49.104;11.396;2023-07-29T11:02:12;104275.06;;;20.71;100.00
48563;BME280;34981;49.104;11.396;2023-07-29T11:04:51;104228.97;;;20.76;100.00
48563;BME280;34981;49.104;11.396;2023-07-29T11:07:22;104129.53;;;20.66;100.00
48563;BME280;34981;49.104;11.396;2023-07-29T11:09:56;104080.53;;;20.63;100.00
48563;BME280;34981;49.104;11.396;2023-07-29T11:12:33;104065.84;;;20.64;100.00
48563;BME280;34981;49.104;11.396;2023-07-29T11:17:32;103995.53;;;20.65;100.00
48563;BME280;34981;49.104;11.396;2023-07-29T11:20:00;103992.41;;;20.79;100.00
48563;BME280;34981;49.104;11.396;2023-07-29T11:22:27;103912.00;;;20.70;100.00
48563;BME280;34981;49.104;11.396;2023-07-29T11:24:57;103887.25;;;20.81;100.00
48563;BME280;34981;49.104;11.396;2023-07-29T11:27:24;103831.91;;;20.78;100.00
48563;BME280;34981;49.104;11.396;2023-07-29T11:29:56;103770.81;;;20.77;100.00
48563;BME280;34981;49.104;11.396;2023-07-29T11:32:23;103725.88;;;20.80;100.00
48563;BME280;34981;49.104;11.396;2023-07-29T11:34:51;103695.31;;;20.84;100.00
48563;BME280;34981;49.104;11.396;2023-07-29T11:37:18;103663.91;;;20.88;100.00
48563;BME280;34981;49.104;11.396;2023-07-29T11:39:47;103629.72;;;20.92;100.00
48563;BME280;34981;49.104;11.396;2023-07-29T11:42:14;103582.88;;;20.95;100.00
48563;BME280;34981;49.104;11.396;2023-07-29T11:44:41;103595.31;;;21.17;100.00
48563;BME280;34981;49.104;11.396;2023-07-29T11:47:09;103559.97;;;21.24;100.00
48563;BME280;34981;49.104;11.396;2023-07-29T11:49:38;103532.75;;;21.40;100.00
48563;BME280;34981;49.104;11.396;2023-07-29T11:52:06;103481.06;;;21.45;100.00
48563;BME280;34981;49.104;11.396;2023-07-29T11:54:37;103477.81;;;21.67;100.00
48563;BME280;34981;49.104;11.396;2023-07-29T11:57:08;103414.63;;;21.77;100.00
48563;BME280;34981;49.104;11.396;2023-07-29T11:59:36;103312.38;;;21.77;100.00
48563;BME280;34981;49.104;11.396;2023-07-29T12:02:05;103176.28;;;21.59;100.00
48563;BME280;34981;49.104;11.396;2023-07-29T12:04:34;103017.13;;;21.28;100.00
48563;BME280;34981;49.104;11.396;2023-07-29T12:07:01;102926.06;;;21.18;100.00
48563;BME280;34981;49.104;11.396;2023-07-29T12:09:28;102875.22;;;21.24;100.00
48563;BME280;34981;49.104;11.396;2023-07-29T12:11:56;102802.28;;;21.23;100.00
48563;BME280;34981;49.104;11.396;2023-07-29T12:14:27;102738.59;;;21.21;100.00
48563;BME280;34981;49.104;11.396;2023-07-29T12:16:55;102674.75;;;21.20;100.00
48563;BME280;34981;49.104;11.396;2023-07-29T12:19:22;102627.34;;;21.20;100.00
48563;BME280;34981;49.104;11.396;2023-07-29T12:21:49;102599.63;;;21.23;100.00
48563;BME280;34981;49.104;11.396;2023-07-29T12:24:16;102579.44;;;21.24;100.00
48563;BME280;34981;49.104;11.396;2023-07-29T12:26:44;102546.56;;;21.24;100.00
48563;BME280;34981;49.104;11.396;2023-07-29T12:29:12;102467.88;;;21.18;100.00
48563;BME280;34981;49.104;11.396;2023-07-29T12:31:39;102438.44;;;21.12;100.00
48563;BME280;34981;49.104;11.396;2023-07-29T12:34:07;102380.69;;;20.98;100.00
48563;BME280;34981;49.104;11.396;2023-07-29T12:36:48;102354.16;;;20.99;100.00
48563;BME280;34981;49.104;11.396;2023-07-29T12:39:19;102294.63;;;21.01;100.00
48563;BME280;34981;49.104;11.396;2023-07-29T12:41:50;102285.00;;;21.05;100.00
48563;BME280;34981;49.104;11.396;2023-07-29T12:44:17;102312.09;;;21.23;100.00